createdAt,value
2018-07-11T04:50:08.746Z,96706.08
2018-07-11T04:51:15.518Z,96701.09
2018-07-11T04:52:22.433Z,96703.62
2018-07-11T04:53:29.725Z,96703.43
2018-07-11T04:54:36.309Z,96697.30
2018-07-11T04:55:44.010Z,96692.08
2018-07-11T04:56:50.571Z,96697.07
2018-07-11T04:57:56.865Z,96691.34
2018-07-11T04:59:04.999Z,96683.95
2018-07-11T05:00:11.316Z,96686.37
2018-07-11T05:01:17.957Z,96685.56
2018-07-11T05:02:24.634Z,96683.91
2018-07-11T05:03:33.059Z,96686.23
2018-07-11T05:04:39.491Z,96684.34
2018-07-11T05:05:47.764Z,96687.25
2018-07-11T05:06:54.004Z,96689.30
2018-07-11T05:08:02.274Z,96681.97
2018-07-11T05:09:08.738Z,96680.75
2018-07-11T05:10:17.217Z,96677.70
2018-07-11T05:11:24.913Z,96685.61
2018-07-11T05:12:31.193Z,96682.79
2018-07-11T05:13:38.176Z,96686.73
2018-07-11T05:14:44.520Z,96681.65
2018-07-11T05:15:52.327Z,96682.24
2018-07-11T05:16:59.945Z,96681.15
2018-07-11T05:18:06.140Z,96689.38
2018-07-11T05:19:14.295Z,96682.92
2018-07-11T05:20:23.791Z,96689.19
2018-07-11T05:21:31.024Z,96686.34
2018-07-11T05:22:37.296Z,96686.64
2018-07-11T05:23:45.388Z,96687.59
2018-07-11T05:24:51.656Z,96680.48
2018-07-11T05:25:58.370Z,96678.48
2018-07-11T05:27:07.022Z,96677.37
2018-07-11T05:28:15.270Z,96682.28
2018-07-11T05:29:23.565Z,96681.38
2018-07-11T05:30:33.560Z,96674.58
2018-07-11T05:31:39.861Z,96678.70
2018-07-11T05:32:46.253Z,96680.28
2018-07-11T05:33:52.561Z,96678.03
2018-07-11T05:35:05.016Z,96685.21
2018-07-11T05:36:11.358Z,96690.34
2018-07-11T05:37:17.650Z,96693.08
2018-07-11T05:38:27.259Z,96695.59
2018-07-11T05:39:34.592Z,96689.45
2018-07-11T05:40:43.034Z,96693.11
2018-07-11T05:41:49.390Z,96696.72
2018-07-11T05:42:55.936Z,96694.70
2018-07-11T05:44:03.529Z,96699.23
2018-07-11T05:45:10.560Z,96700.59
2018-07-11T05:46:16.831Z,96693.33
2018-07-11T05:47:23.604Z,96696.53
2018-07-11T05:48:29.900Z,96699.70
2018-07-11T05:49:36.912Z,96696.05
2018-07-11T05:50:43.165Z,96694.13
2018-07-11T05:51:49.408Z,96699.13
2018-07-11T05:52:58.263Z,96696.18
2018-07-11T05:54:04.635Z,96692.16
2018-07-11T05:55:11.320Z,96692.37
2018-07-11T05:56:18.524Z,96697.47
2018-07-11T05:57:26.800Z,96704.16
2018-07-11T05:58:33.059Z,96702.94
2018-07-11T05:59:39.595Z,96700.38
2018-07-11T06:00:45.887Z,96701.79
2018-07-11T06:01:52.458Z,96711.27
2018-07-11T06:02:59.618Z,96704.18
2018-07-11T06:04:08.362Z,96710.56
2018-07-11T06:05:15.204Z,96705.77
2018-07-11T06:06:21.620Z,96702.55
2018-07-11T06:07:27.881Z,96705.77
2018-07-11T06:08:35.241Z,96702.28
2018-07-11T06:09:42.467Z,96707.77
2018-07-11T06:10:48.674Z,96706.28
2018-07-11T06:11:55.201Z,96701.28
2018-07-11T06:13:02.492Z,96706.28
2018-07-11T06:14:08.793Z,96702.06
2018-07-11T06:15:16.043Z,96705.75
2018-07-11T06:16:22.545Z,96706.05
2018-07-11T06:17:28.874Z,96703.75
2018-07-11T06:18:36.820Z,96707.63
2018-07-11T06:19:43.022Z,96710.52
2018-07-11T06:20:49.143Z,96712.62
2018-07-11T06:21:55.313Z,96713.37
2018-07-11T06:23:02.594Z,96718.09
2018-07-11T06:24:09.008Z,96711.69
2018-07-11T06:25:15.617Z,96703.78
2018-07-11T06:26:21.822Z,96714.22
2018-07-11T06:27:28.530Z,96708.50
2018-07-11T06:28:34.747Z,96709.34
2018-07-11T06:29:42.210Z,96707.70
2018-07-11T06:30:48.432Z,96707.04
2018-07-11T06:31:54.685Z,96711.19
2018-07-11T06:33:00.790Z,96715.54
2018-07-11T06:34:09.092Z,96710.16
2018-07-11T06:35:16.129Z,96713.48
2018-07-11T06:36:22.384Z,96711.03
2018-07-11T06:37:28.865Z,96709.44
2018-07-11T06:38:38.383Z,96703.14
2018-07-11T06:39:45.350Z,96707.33
2018-07-11T06:40:51.701Z,96701.30
2018-07-11T06:41:58.068Z,96708.89
2018-07-11T06:43:05.584Z,96705.88
2018-07-11T06:44:11.971Z,96701.98
2018-07-11T06:45:20.054Z,96704.00
2018-07-11T06:46:27.798Z,96702.25
2018-07-11T06:47:33.979Z,96703.80
2018-07-11T06:48:43.186Z,96713.41
2018-07-11T06:49:49.419Z,96702.28
2018-07-11T06:50:55.672Z,96702.13
2018-07-11T06:52:01.838Z,96709.48
2018-07-11T06:53:09.213Z,96709.33
2018-07-11T06:54:15.546Z,96706.70
2018-07-11T06:55:21.829Z,96706.91
2018-07-11T06:56:28.061Z,96703.30
2018-07-11T06:57:35.045Z,96705.16
2018-07-11T06:58:43.019Z,96710.03
2018-07-11T06:59:49.159Z,96704.59
2018-07-11T07:00:57.109Z,96709.54
2018-07-11T07:02:03.303Z,96714.42
2018-07-11T07:03:09.519Z,96706.82
2018-07-11T07:04:15.769Z,96713.86
2018-07-11T07:05:22.840Z,96709.78
2018-07-11T07:06:30.252Z,96714.33
2018-07-11T07:07:37.288Z,96713.67
2018-07-11T07:08:43.539Z,96715.84
2018-07-11T07:09:50.598Z,96714.17
2018-07-11T07:10:57.691Z,96711.45
2018-07-11T07:12:05.044Z,96721.43
2018-07-11T07:13:12.808Z,96712.16
2018-07-11T07:14:19.012Z,96712.41
2018-07-11T07:15:25.010Z,96721.58
2018-07-11T07:16:31.279Z,96715.39
2018-07-11T07:17:38.366Z,96717.95
2018-07-11T07:18:44.487Z,96721.78
2018-07-11T07:19:52.531Z,96715.17
2018-07-11T07:20:58.774Z,96716.62
2018-07-11T07:22:05.026Z,96716.35
2018-07-11T07:23:11.100Z,96724.50
2018-07-11T07:24:17.623Z,96722.77
2018-07-11T07:25:24.070Z,96723.52
2018-07-11T07:26:31.322Z,96725.16
2018-07-11T07:27:38.295Z,96724.39
2018-07-11T07:28:45.552Z,96726.09
2018-07-11T07:29:51.972Z,96726.09
2018-07-11T07:31:00.414Z,96727.22
2018-07-11T07:32:06.702Z,96729.28
2018-07-11T07:33:13.738Z,96726.31
2018-07-11T07:34:20.024Z,96729.14
2018-07-11T07:35:27.194Z,96728.02
2018-07-11T07:36:34.852Z,96732.11
2018-07-11T07:37:40.982Z,96726.66
2018-07-11T07:38:47.558Z,96728.16
2018-07-11T07:39:53.694Z,96719.45
2018-07-11T07:41:00.172Z,96724.75
2018-07-11T07:42:06.544Z,96721.16
2018-07-11T07:43:12.876Z,96724.96
2018-07-11T07:44:19.224Z,96721.98
2018-07-11T07:45:27.212Z,96721.30
2018-07-11T07:46:34.903Z,96727.92
2018-07-11T07:47:47.950Z,96720.85
2018-07-11T07:48:55.054Z,96725.19
2018-07-11T07:50:01.806Z,96727.69
2018-07-11T07:51:08.097Z,96718.13
2018-07-11T07:52:14.464Z,96727.89
2018-07-11T07:53:21.357Z,96728.81
2018-07-11T07:54:30.288Z,96728.38
2018-07-11T07:55:37.813Z,96731.78
2018-07-11T07:56:44.304Z,96729.75
2018-07-11T07:57:50.454Z,96730.84
2018-07-11T07:58:56.792Z,96731.39
2018-07-11T08:00:03.209Z,96729.77
2018-07-11T08:01:09.612Z,96724.96
2018-07-11T08:02:16.752Z,96724.55
2018-07-11T08:03:23.026Z,96730.38
2018-07-11T08:04:29.447Z,96724.87
2018-07-11T08:05:35.792Z,96720.98
2018-07-11T08:06:44.358Z,96717.22
2018-07-11T08:07:53.636Z,96724.23
2018-07-11T08:08:59.971Z,96726.63
2018-07-11T08:10:06.367Z,96721.14
2018-07-11T08:11:13.912Z,96717.28
2018-07-11T08:12:20.194Z,96712.37
2018-07-11T08:13:26.384Z,96717.18
2018-07-11T08:14:32.566Z,96714.14
2018-07-11T08:15:39.094Z,96714.30
2018-07-11T08:16:45.419Z,96713.77
2018-07-11T08:17:51.789Z,96716.30
2018-07-11T08:18:57.934Z,96719.42
2018-07-11T08:20:03.993Z,96717.49
2018-07-11T08:21:10.298Z,96714.22
2018-07-11T08:23:30.480Z,96720.55
2018-07-11T08:24:46.984Z,96718.81
2018-07-11T08:26:04.399Z,96708.13
2018-07-11T08:27:25.832Z,96704.91
2018-07-11T08:30:01.767Z,96710.94
2018-07-11T08:31:21.425Z,96709.59
2018-07-11T08:33:10.740Z,96707.02
2018-07-11T08:34:35.585Z,96712.95
2018-07-11T08:38:04.544Z,96717.18
2018-07-11T08:39:22.727Z,96710.16
2018-07-11T08:42:44.606Z,96709.80
2018-07-11T08:46:07.825Z,96712.66
2018-07-11T08:48:26.052Z,96711.73
2018-07-11T08:51:48.861Z,96713.77
2018-07-11T08:53:21.324Z,96716.95
2018-07-11T08:55:38.012Z,96713.48
2018-07-11T08:57:55.137Z,96707.85
2018-07-11T09:00:12.527Z,96710.72
2018-07-11T09:01:30.147Z,96710.51
2018-07-11T09:02:48.812Z,96708.30
2018-07-11T09:04:08.076Z,96713.41
2018-07-11T09:05:26.036Z,96709.49
2018-07-11T09:06:40.750Z,96712.09
2018-07-11T09:08:00.534Z,96713.27
2018-07-11T09:09:31.156Z,96708.45
2018-07-11T09:12:46.772Z,96707.63
2018-07-11T09:15:17.486Z,96709.27
2018-07-11T09:17:28.793Z,96705.77
2018-07-11T09:20:43.375Z,96704.70
2018-07-11T09:22:01.827Z,96699.47
2018-07-11T09:23:51.860Z,96697.67
2018-07-11T09:24:58.875Z,96696.03
2018-07-11T09:26:06.016Z,96702.52
2018-07-11T09:27:13.601Z,96695.35
2018-07-11T09:28:20.829Z,96700.30
2018-07-11T09:29:28.035Z,96697.02
2018-07-11T09:30:35.533Z,96701.14
2018-07-11T09:31:44.055Z,96702.23
2018-07-11T09:32:50.378Z,96692.23
2018-07-11T09:33:56.653Z,96687.39
2018-07-11T09:35:02.803Z,96695.84
2018-07-11T09:36:10.012Z,96686.20
2018-07-11T09:37:16.209Z,96690.16
2018-07-11T09:38:22.389Z,96689.70
2018-07-11T09:39:30.474Z,96689.67
2018-07-11T09:40:38.565Z,96690.83
2018-07-11T09:41:46.973Z,96691.09
2018-07-11T09:42:53.947Z,96681.11
2018-07-11T09:44:02.931Z,96696.80
2018-07-11T09:45:10.279Z,96691.38
2018-07-11T09:46:17.457Z,96685.79
2018-07-11T09:47:28.501Z,96683.95
2018-07-11T09:48:37.121Z,96683.34
2018-07-11T09:49:43.835Z,96689.20
2018-07-11T09:50:51.319Z,96687.38
2018-07-11T09:51:59.129Z,96692.45
2018-07-11T09:53:06.769Z,96691.25
2018-07-11T09:54:13.909Z,96693.42
2018-07-11T09:55:21.038Z,96688.36
2018-07-11T09:56:27.320Z,96689.34
2018-07-11T09:57:34.388Z,96693.71
2018-07-11T09:58:42.021Z,96694.51
2018-07-11T09:59:49.315Z,96690.33
2018-07-11T10:01:02.090Z,96689.88
2018-07-11T10:02:08.380Z,96686.66
2018-07-11T10:03:16.541Z,96688.28
2018-07-11T10:04:23.909Z,96690.72
2018-07-11T10:05:31.154Z,96692.39
2018-07-11T10:06:37.798Z,96693.14
2018-07-11T10:07:44.886Z,96699.88
2018-07-11T10:08:53.163Z,96690.50
2018-07-11T10:10:00.908Z,96697.95
2018-07-11T10:11:07.451Z,96697.48
2018-07-11T10:12:16.141Z,96694.31
2018-07-11T10:13:23.392Z,96696.62
2018-07-11T10:14:30.670Z,96691.67
2018-07-11T10:15:36.780Z,96700.40
2018-07-11T10:16:44.969Z,96701.43
2018-07-11T10:17:51.373Z,96696.42
2018-07-11T10:19:03.747Z,96698.53
2018-07-11T10:20:10.754Z,96693.22
2018-07-11T10:21:17.397Z,96698.71
2018-07-11T10:22:23.816Z,96693.47
2018-07-11T10:23:31.481Z,96698.09
2018-07-11T10:24:39.082Z,96699.01
2018-07-11T10:25:47.887Z,96696.88
2018-07-11T10:26:54.120Z,96696.48
2018-07-11T10:28:10.861Z,96703.35
2018-07-11T10:29:17.301Z,96693.40
2018-07-11T10:30:23.779Z,96698.31
2018-07-11T10:31:30.938Z,96695.12
2018-07-11T10:32:38.338Z,96694.32
2018-07-11T10:33:44.844Z,96698.02
2018-07-11T10:34:51.965Z,96699.55
2018-07-11T10:35:58.316Z,96697.53
2018-07-11T10:37:06.544Z,96698.61
2018-07-11T10:38:14.109Z,96702.88
2018-07-11T10:39:21.403Z,96698.19
2018-07-11T10:40:27.821Z,96703.52
2018-07-11T10:41:35.714Z,96697.30
2018-07-11T10:42:43.818Z,96699.55
2018-07-11T10:43:51.649Z,96698.75
2018-07-11T10:44:59.312Z,96693.41
2018-07-11T10:46:05.899Z,96692.46
2018-07-11T10:47:14.441Z,96689.49
2018-07-11T10:48:21.834Z,96690.86
2018-07-11T10:51:02.349Z,96675.58
2018-07-11T10:52:10.126Z,96678.53
2018-07-11T10:53:16.462Z,96679.83
2018-07-11T10:54:26.666Z,96676.45
2018-07-11T10:55:33.884Z,96676.98
2018-07-11T10:56:40.237Z,96675.23
2018-07-11T10:57:47.359Z,96677.70
2018-07-11T10:58:55.258Z,96682.00
2018-07-11T11:00:02.800Z,96680.21
2018-07-11T11:01:09.931Z,96673.44
2018-07-11T11:02:22.445Z,96666.92
2018-07-11T11:03:30.694Z,96673.36
2018-07-11T11:04:37.771Z,96672.14
2018-07-11T11:05:44.004Z,96668.08
2018-07-11T11:06:51.788Z,96668.52
2018-07-11T11:07:57.990Z,96668.22
2018-07-11T11:09:06.414Z,96671.03
2018-07-11T11:10:13.556Z,96670.61
2018-07-11T11:11:19.760Z,96668.02
2018-07-11T11:12:26.711Z,96670.31
2018-07-11T11:13:34.472Z,96669.59
2018-07-11T11:14:42.740Z,96672.72
2018-07-11T11:15:49.040Z,96672.61
2018-07-11T11:16:55.096Z,96661.34
2018-07-11T11:18:03.104Z,96664.09
2018-07-11T11:19:09.304Z,96667.33
2018-07-11T11:20:15.532Z,96665.54
2018-07-11T11:21:22.556Z,96668.05
2018-07-11T11:22:29.526Z,96667.48
2018-07-11T11:23:36.764Z,96662.22
2018-07-11T11:24:43.178Z,96667.06
2018-07-11T11:25:49.600Z,96660.38
2018-07-11T11:26:55.754Z,96655.73
2018-07-11T11:28:02.812Z,96657.55
2018-07-11T11:29:09.856Z,96659.80
2018-07-11T11:30:16.831Z,96658.49
2018-07-11T11:31:24.074Z,96661.36
2018-07-11T11:32:30.485Z,96651.34
2018-07-11T11:33:37.710Z,96653.52
2018-07-11T11:34:43.764Z,96654.27
2018-07-11T11:35:50.416Z,96646.34
2018-07-11T11:36:56.913Z,96650.53
2018-07-11T11:38:03.094Z,96654.92
2018-07-11T11:39:09.138Z,96651.41
2018-07-11T11:40:16.306Z,96646.20
2018-07-11T11:41:23.307Z,96645.77
2018-07-11T11:42:30.991Z,96648.02
2018-07-11T11:43:37.050Z,96649.73
2018-07-11T11:44:43.300Z,96653.87
2018-07-11T11:45:50.891Z,96645.14
2018-07-11T11:47:01.648Z,96651.04
2018-07-11T11:48:08.785Z,96647.73
2018-07-11T11:49:14.800Z,96643.19
2018-07-11T11:50:20.974Z,96641.82
2018-07-11T11:51:27.217Z,96643.37
2018-07-11T11:52:34.512Z,96634.08
2018-07-11T11:53:40.970Z,96642.95
2018-07-11T11:54:47.279Z,96636.91
2018-07-11T11:55:54.588Z,96640.64
2018-07-11T11:57:01.006Z,96638.13
2018-07-11T11:58:07.384Z,96638.54
2018-07-11T11:59:16.212Z,96636.06
2018-07-11T12:00:25.303Z,96633.67
2018-07-11T12:01:31.552Z,96639.95
2018-07-11T12:02:37.668Z,96637.09
2018-07-11T12:03:44.391Z,96637.09
2018-07-11T12:04:52.188Z,96635.58
2018-07-11T12:05:59.126Z,96636.03
2018-07-11T12:07:06.751Z,96641.05
2018-07-11T12:08:13.349Z,96654.33
2018-07-11T12:09:19.811Z,96657.34
2018-07-11T12:10:26.762Z,96652.20
2018-07-11T12:11:32.885Z,96657.83
2018-07-11T12:12:39.604Z,96646.87
2018-07-11T12:13:47.209Z,96658.75
2018-07-11T12:14:54.656Z,96665.73
2018-07-11T12:16:02.627Z,96663.57
2018-07-11T12:17:08.762Z,96659.12
2018-07-11T12:18:15.957Z,96662.59
2018-07-11T12:19:23.190Z,96661.07
2018-07-11T12:20:29.422Z,96657.30
2018-07-11T12:21:37.662Z,96661.12
2018-07-11T12:22:46.950Z,96664.73
2018-07-11T12:23:54.091Z,96663.44
2018-07-11T12:25:00.586Z,96660.33
2018-07-11T12:26:10.116Z,96660.55
2018-07-11T12:27:18.278Z,96661.92
2018-07-11T12:28:25.416Z,96658.19
2018-07-11T12:29:31.633Z,96657.02
2018-07-11T12:30:37.834Z,96657.39
2018-07-11T12:31:44.870Z,96661.69
2018-07-11T12:32:51.438Z,96658.38
2018-07-11T12:33:58.876Z,96660.13
2018-07-11T12:35:05.989Z,96658.95
2018-07-11T12:36:12.004Z,96661.69
2018-07-11T12:37:19.240Z,96657.02
2018-07-11T12:38:26.767Z,96662.15
2018-07-11T12:39:33.805Z,96659.03
2018-07-11T12:40:40.719Z,96659.11
2018-07-11T12:41:47.728Z,96660.33
2018-07-11T12:42:53.987Z,96654.50
2018-07-11T12:44:01.706Z,96656.09
2018-07-11T12:45:09.143Z,96653.92
2018-07-11T12:46:16.149Z,96654.27
2018-07-11T12:47:29.611Z,96654.50
2018-07-11T12:48:41.507Z,96650.73
2018-07-11T12:49:48.241Z,96645.97
2018-07-11T12:50:56.637Z,96648.44
2018-07-11T12:52:04.408Z,96649.96
2018-07-11T12:53:10.746Z,96648.36
2018-07-11T12:54:18.431Z,96651.98
2018-07-11T12:55:25.677Z,96645.16
2018-07-11T12:56:32.430Z,96645.92
2018-07-11T12:57:38.872Z,96641.16
2018-07-11T12:58:45.248Z,96637.20
2018-07-11T12:59:54.534Z,96637.12
2018-07-11T13:01:01.645Z,96627.22
2018-07-11T13:02:07.768Z,96622.34
2018-07-11T13:03:14.200Z,96625.51
2018-07-11T13:04:21.907Z,96619.66
2018-07-11T13:05:29.423Z,96617.37
2018-07-11T13:06:35.800Z,96618.94
2018-07-11T13:07:44.523Z,96623.05
2018-07-11T13:08:51.414Z,96630.27
2018-07-11T13:10:00.928Z,96622.20
2018-07-11T13:11:07.500Z,96622.12
2018-07-11T13:12:13.725Z,96623.27
2018-07-11T13:13:20.241Z,96621.23
2018-07-11T13:14:30.159Z,96617.78
2018-07-11T13:15:37.412Z,96607.97
2018-07-11T13:16:43.899Z,96608.20
2018-07-11T13:17:52.252Z,96603.66
2018-07-11T13:19:00.458Z,96597.95
2018-07-11T13:20:07.151Z,96595.45
2018-07-11T13:21:14.179Z,96597.95
2018-07-11T13:22:20.901Z,96603.58
2018-07-11T13:23:27.299Z,96606.47
2018-07-11T13:24:35.326Z,96608.02
2018-07-11T13:25:42.250Z,96613.70
2018-07-11T13:26:50.618Z,96612.39
2018-07-11T13:27:56.923Z,96607.14
2018-07-11T13:29:04.345Z,96616.21
2018-07-11T13:30:11.660Z,96607.26
2018-07-11T13:31:18.997Z,96613.36
2018-07-11T13:32:27.669Z,96616.58
2018-07-11T13:33:34.177Z,96614.69
2018-07-11T13:34:42.165Z,96615.97
2018-07-11T13:35:49.899Z,96613.94
2018-07-11T13:36:57.154Z,96611.55
2018-07-11T13:38:04.373Z,96619.89
2018-07-11T13:39:20.662Z,96610.02
2018-07-11T13:40:26.811Z,96610.50
2018-07-11T13:41:32.967Z,96607.98
2018-07-11T13:42:39.577Z,96607.55
2018-07-11T13:43:45.810Z,96608.92
2018-07-11T13:44:51.948Z,96611.52
2018-07-11T13:45:58.275Z,96608.10
2018-07-11T13:47:08.486Z,96610.27
2018-07-11T13:48:15.216Z,96616.65
2018-07-11T13:49:22.098Z,96615.05
2018-07-11T13:50:29.139Z,96618.02
2018-07-11T13:51:35.358Z,96618.34
2018-07-11T13:52:42.726Z,96621.03
2018-07-11T13:53:49.244Z,96605.02
2018-07-11T13:54:55.774Z,96607.70
2018-07-11T13:56:02.717Z,96608.68
2018-07-11T13:57:10.352Z,96614.81
2018-07-11T13:58:18.813Z,96612.50
2018-07-11T13:59:25.053Z,96616.98
2018-07-11T14:00:32.440Z,96615.38
2018-07-11T14:01:40.653Z,96619.83
2018-07-11T14:02:48.314Z,96609.02
2018-07-11T14:03:56.548Z,96613.92
2018-07-11T14:05:02.900Z,96620.06
2018-07-11T14:06:10.078Z,96615.05
2018-07-11T14:07:38.234Z,96628.02
2018-07-11T14:08:47.656Z,96623.11
2018-07-11T14:10:06.568Z,96622.31
2018-07-11T14:11:26.558Z,96637.80
2018-07-11T14:12:43.948Z,96625.00
2018-07-11T14:13:57.240Z,96631.61
2018-07-11T14:15:05.662Z,96634.80
2018-07-11T14:16:12.610Z,96627.25
2018-07-11T14:17:18.940Z,96633.81
2018-07-11T14:18:26.838Z,96631.27
2018-07-11T14:19:35.570Z,96628.84
2018-07-11T14:20:42.040Z,96625.31
2018-07-11T14:21:48.262Z,96632.16
2018-07-11T14:22:54.683Z,96625.45
2018-07-11T14:24:04.395Z,96629.67
2018-07-11T14:25:12.701Z,96629.02
2018-07-11T14:26:22.196Z,96634.95
2018-07-11T14:27:29.046Z,96628.53
2018-07-11T14:28:35.774Z,96629.76
2018-07-11T14:29:43.788Z,96636.27
2018-07-11T14:30:50.698Z,96636.83
2018-07-11T14:31:58.012Z,96632.16
2018-07-11T14:33:06.343Z,96627.33
2018-07-11T14:34:15.304Z,96623.87
2018-07-11T14:35:21.912Z,96623.39
2018-07-11T14:36:28.965Z,96620.02
2018-07-11T14:37:35.374Z,96626.80
2018-07-11T14:38:41.582Z,96621.25
2018-07-11T14:39:47.985Z,96617.64
2018-07-11T14:40:55.372Z,96621.72
2018-07-11T14:42:02.772Z,96616.28
2018-07-11T14:43:08.999Z,96615.74
2018-07-11T14:44:15.630Z,96617.16
2018-07-11T14:45:23.336Z,96614.41
2018-07-11T14:46:32.740Z,96614.14
2018-07-11T14:47:44.910Z,96607.41
2018-07-11T14:48:51.446Z,96611.23
2018-07-11T14:49:58.159Z,96614.24
2018-07-11T14:51:04.650Z,96609.28
2018-07-11T14:52:11.084Z,96607.46
2018-07-11T14:53:17.880Z,96604.88
2018-07-11T14:54:25.356Z,96613.09
2018-07-11T14:55:32.686Z,96607.04
2018-07-11T14:56:39.259Z,96604.72
2018-07-11T14:57:46.751Z,96606.89
2018-07-11T14:58:56.243Z,96606.97
2018-07-11T15:00:04.620Z,96606.03
2018-07-11T15:01:12.275Z,96598.61
2018-07-11T15:02:18.612Z,96611.88
2018-07-11T15:03:24.745Z,96611.23
2018-07-11T15:04:31.247Z,96612.59
2018-07-11T15:05:37.849Z,96611.42
2018-07-11T15:06:44.579Z,96607.97
2018-07-11T15:07:51.049Z,96610.94
2018-07-11T15:08:57.738Z,96604.08
2018-07-11T15:10:05.042Z,96609.14
2018-07-11T15:11:15.550Z,96604.66
2018-07-11T15:12:22.527Z,96601.57
2018-07-11T15:13:29.343Z,96599.26
2018-07-11T15:14:36.054Z,96603.22
2018-07-11T15:15:43.886Z,96608.70
2018-07-11T15:16:50.447Z,96606.11
2018-07-11T15:17:56.869Z,96601.42
2018-07-11T15:19:04.925Z,96605.53
2018-07-11T15:20:12.412Z,96597.17
2018-07-11T15:21:18.997Z,96595.45
2018-07-11T15:22:25.693Z,96604.59
2018-07-11T15:23:33.019Z,96604.73
2018-07-11T15:24:39.329Z,96607.28
2018-07-11T15:25:48.423Z,96610.02
2018-07-11T15:26:54.953Z,96611.58
2018-07-11T15:28:01.708Z,96606.91
2018-07-11T15:29:08.167Z,96609.07
2018-07-11T15:30:14.775Z,96606.91
2018-07-11T15:31:21.081Z,96611.58
2018-07-11T15:32:27.525Z,96609.34
2018-07-11T15:33:34.095Z,96612.22
2018-07-11T15:34:40.760Z,96615.34
2018-07-11T15:35:48.817Z,96618.88
2018-07-11T15:36:57.416Z,96618.08
2018-07-11T15:38:05.249Z,96608.03
2018-07-11T15:39:11.645Z,96618.42
2018-07-11T15:40:18.139Z,96612.37
2018-07-11T15:41:26.361Z,96612.59
2018-07-11T15:42:33.537Z,96605.95
2018-07-11T15:43:41.035Z,96611.95
2018-07-11T15:44:48.428Z,96608.75
2018-07-11T15:45:56.389Z,96603.77
2018-07-11T15:47:04.177Z,96599.00
2018-07-11T15:48:12.651Z,96605.84
2018-07-11T15:49:19.165Z,96604.28
2018-07-11T15:50:25.873Z,96609.84
2018-07-11T15:51:34.567Z,96612.78
2018-07-11T15:52:43.423Z,96605.81
2018-07-11T15:53:50.063Z,96609.55
2018-07-11T15:55:01.218Z,96616.25
2018-07-11T15:56:07.781Z,96610.28
2018-07-11T15:57:14.766Z,96613.33
2018-07-11T15:58:23.047Z,96609.07
2018-07-11T15:59:32.585Z,96605.95
2018-07-11T16:00:41.563Z,96606.33
2018-07-11T16:01:55.233Z,96610.44
2018-07-11T16:03:04.145Z,96606.91
2018-07-11T16:04:12.201Z,96604.54
2018-07-11T16:05:21.970Z,96602.72
2018-07-11T16:06:28.472Z,96603.86
2018-07-11T16:07:39.828Z,96610.52
2018-07-11T16:08:52.715Z,96606.17
2018-07-11T16:10:01.051Z,96608.91
2018-07-11T16:11:07.936Z,96601.84
2018-07-11T16:12:14.389Z,96604.58
2018-07-11T16:13:23.875Z,96603.28
2018-07-11T16:14:30.237Z,96608.42
2018-07-11T16:15:36.595Z,96603.94
2018-07-11T16:16:43.683Z,96603.37
2018-07-11T16:17:51.988Z,96611.16
2018-07-11T16:18:59.577Z,96609.56
2018-07-11T16:20:06.238Z,96611.50
2018-07-11T16:21:12.502Z,96609.80
2018-07-11T16:22:19.053Z,96608.42
2018-07-11T16:23:26.232Z,96607.05
2018-07-11T16:24:36.811Z,96611.39
2018-07-11T16:25:44.064Z,96608.05
2018-07-11T16:26:52.720Z,96616.64
2018-07-11T16:28:03.356Z,96614.24
2018-07-11T16:29:10.209Z,96610.94
2018-07-11T16:30:19.647Z,96621.23
2018-07-11T16:31:26.163Z,96625.34
2018-07-11T16:32:32.574Z,96624.13
2018-07-11T16:33:40.036Z,96623.33
2018-07-11T16:34:46.652Z,96624.05
2018-07-11T16:35:56.349Z,96629.30
2018-07-11T16:37:02.784Z,96629.78
2018-07-11T16:38:10.831Z,96624.11
2018-07-11T16:39:17.420Z,96622.34
2018-07-11T16:40:28.811Z,96624.00
2018-07-11T16:41:35.910Z,96620.12
2018-07-11T16:42:42.282Z,96623.14
2018-07-11T16:43:48.587Z,96612.91
2018-07-11T16:44:55.618Z,96619.80
2018-07-11T16:46:02.547Z,96619.72
2018-07-11T16:47:09.256Z,96620.77
2018-07-11T16:48:15.791Z,96626.52
2018-07-11T16:49:23.090Z,96625.63
2018-07-11T16:50:30.794Z,96632.25
2018-07-11T16:51:38.144Z,96632.16
2018-07-11T16:52:44.593Z,96635.27
2018-07-11T16:53:51.264Z,96643.90
2018-07-11T16:54:57.945Z,96634.89
2018-07-11T16:56:04.467Z,96638.66
2018-07-11T16:57:12.332Z,96637.72
2018-07-11T16:58:25.415Z,96636.92
2018-07-11T16:59:50.626Z,96642.39
2018-07-11T17:00:59.505Z,96637.86
2018-07-11T17:02:06.736Z,96631.73
2018-07-11T17:03:16.232Z,96636.62
2018-07-11T17:04:25.135Z,96636.17
2018-07-11T17:05:34.898Z,96630.50
2018-07-11T17:06:41.431Z,96629.03
2018-07-11T17:07:54.233Z,96631.91
2018-07-11T17:09:01.061Z,96632.81
2018-07-11T17:10:09.357Z,96635.13
2018-07-11T17:11:24.449Z,96635.92
2018-07-11T17:12:31.285Z,96634.75
2018-07-11T17:13:38.639Z,96636.69
2018-07-11T17:14:48.455Z,96634.55
2018-07-11T17:15:55.639Z,96636.48
2018-07-11T17:17:03.393Z,96643.99
2018-07-11T17:18:14.945Z,96640.59
2018-07-11T17:19:35.095Z,96644.89
2018-07-11T17:20:42.446Z,96642.76
2018-07-11T17:21:50.357Z,96652.91
2018-07-11T17:23:00.109Z,96647.86
2018-07-11T17:24:09.482Z,96641.03
2018-07-11T17:25:16.761Z,96649.23
2018-07-11T17:26:26.697Z,96650.03
2018-07-11T17:27:34.194Z,96655.16
2018-07-11T17:28:41.293Z,96655.16
2018-07-11T17:29:50.337Z,96654.00
2018-07-11T17:30:59.186Z,96651.49
2018-07-11T17:32:10.462Z,96648.76
2018-07-11T17:33:20.156Z,96650.13
2018-07-11T17:34:27.941Z,96658.33
2018-07-11T17:35:36.031Z,96660.64
2018-07-11T17:36:43.381Z,96658.80
2018-07-11T17:37:52.771Z,96655.64
2018-07-11T17:38:59.962Z,96663.61
2018-07-11T17:40:10.197Z,96661.78
2018-07-11T17:41:16.752Z,96659.16
2018-07-11T17:42:28.079Z,96663.39
2018-07-11T17:43:40.983Z,96665.33
2018-07-11T17:44:54.335Z,96660.00
2018-07-11T17:46:00.889Z,96657.39
2018-07-11T17:47:07.767Z,96659.23
2018-07-11T17:48:56.692Z,96663.91
2018-07-11T17:50:06.642Z,96660.07
2018-07-11T17:51:20.934Z,96672.28
2018-07-11T17:52:29.293Z,96667.38
2018-07-11T17:53:47.364Z,96674.22
2018-07-11T17:55:12.947Z,96677.18
2018-07-11T17:56:24.936Z,96680.15
2018-07-11T17:58:05.367Z,96679.28
2018-07-11T17:59:12.845Z,96679.95
2018-07-11T18:00:28.285Z,96677.25
2018-07-11T18:01:45.605Z,96680.91
2018-07-11T18:02:57.658Z,96681.84
2018-07-11T18:06:18.692Z,96675.11
2018-07-11T18:07:49.344Z,96682.70
2018-07-11T18:09:07.973Z,96682.36
2018-07-11T18:10:50.321Z,96683.86
2018-07-11T18:12:08.969Z,96690.21
2018-07-11T18:13:40.878Z,96684.31
2018-07-11T18:15:09.153Z,96684.44
2018-07-11T18:16:32.068Z,96686.13
2018-07-11T18:17:46.193Z,96696.05
2018-07-11T18:19:00.890Z,96689.22
2018-07-11T18:20:20.159Z,96693.09
2018-07-11T18:21:32.274Z,96694.81
2018-07-11T18:22:49.295Z,96694.02
2018-07-11T18:24:02.698Z,96691.05
2018-07-11T18:25:20.681Z,96691.05
2018-07-11T18:26:38.643Z,96695.82
2018-07-11T18:28:01.707Z,96700.84
2018-07-11T18:29:18.016Z,96700.61
2018-07-11T18:30:34.632Z,96706.76
2018-07-11T18:33:09.237Z,96709.81
2018-07-11T18:35:29.569Z,96700.71
2018-07-11T18:37:50.543Z,96710.52
2018-07-11T18:39:14.338Z,96713.90
2018-07-11T18:40:42.958Z,96724.02
2018-07-11T18:41:59.822Z,96728.67
2018-07-11T18:45:22.197Z,96727.91
2018-07-11T18:46:46.937Z,96735.33
2018-07-11T18:48:19.886Z,96737.93